Time;durP1;ratioP1;P1;durP2;ratioP2;P2;SDS_P1;SDS_P2;PMS_P1;PMS_P2;Temp;Humidity;BMP_temperature;BMP_pressure;BME280_temperature;BME280_humidity;BME280_pressure;Samples;Min_cycle;Max_cycle;Signal;HPM_P1;HPM_P2
2021/07/11 00:04:04;;;;;;;9.90;8.30;;;;;;;17.41;100.00;98968.34;10523771;28;20273;-83
2021/07/11 00:09:22;;;;;;;11.03;9.93;;;;;;;17.20;100.00;98966.25;10523146;28;20166;-84
2021/07/11 00:14:41;;;;;;;9.90;9.00;;;;;;;17.25;100.00;98965.66;10523068;28;20205;-85
2021/07/11 00:20:00;;;;;;;11.03;10.03;;;;;;;17.27;100.00;98958.47;10538323;28;20245;-84
2021/07/11 00:25:20;;;;;;;10.43;9.43;;;;;;;17.26;100.00;98947.75;10547141;28;20632;-84
2021/07/11 00:30:39;;;;;;;11.17;9.97;;;;;;;17.34;100.00;98941.56;10531128;28;20285;-83
2021/07/11 00:35:59;;;;;;;9.73;9.00;;;;;;;17.22;100.00;98936.00;10531639;28;20214;-84
2021/07/11 00:41:21;;;;;;;10.80;9.80;;;;;;;17.11;100.00;98947.47;10543395;28;20178;-84
2021/07/11 00:46:43;;;;;;;11.90;10.67;;;;;;;17.09;100.00;98944.34;10559793;28;20179;-85
2021/07/11 00:52:02;;;;;;;11.13;9.77;;;;;;;16.99;100.00;98934.34;10487376;28;20242;-84
2021/07/11 00:57:21;;;;;;;12.67;11.53;;;;;;;16.94;100.00;98937.69;10502552;28;20527;-84
2021/07/11 01:02:50;;;;;;;17.73;9.90;;;;;;;16.90;100.00;98930.69;10503678;28;20183;-86
2021/07/11 01:08:17;;;;;;;12.70;10.70;;;;;;;16.90;100.00;98939.78;10487057;28;20175;-86
2021/07/11 01:13:38;;;;;;;11.27;10.20;;;;;;;16.95;100.00;98930.91;10487742;28;20641;-87
2021/07/11 01:19:08;;;;;;;10.30;9.40;;;;;;;16.97;100.00;98914.53;10521492;28;20602;-86
2021/07/11 01:24:32;;;;;;;12.57;11.37;;;;;;;17.02;100.00;98919.56;10544606;28;20174;-86
2021/07/11 01:29:52;;;;;;;13.80;10.83;;;;;;;17.10;100.00;98918.13;10529076;28;20174;-86
2021/07/11 01:35:12;;;;;;;10.63;9.73;;;;;;;17.08;100.00;98912.22;10541868;28;20217;-86
2021/07/11 01:40:31;;;;;;;11.97;9.87;;;;;;;17.10;100.00;98900.63;10544231;28;20174;-86
2021/07/11 01:45:53;;;;;;;12.27;11.07;;;;;;;17.10;100.00;98898.66;10528199;28;20269;-85
2021/07/11 01:51:15;;;;;;;11.17;10.17;;;;;;;17.01;100.00;98893.00;10542085;28;20198;-86
2021/07/11 01:56:35;;;;;;;10.77;9.80;;;;;;;17.10;100.00;98906.19;10543136;28;20212;-86
2021/07/11 02:01:54;;;;;;;9.87;9.03;;;;;;;17.13;100.00;98894.97;10527884;28;20185;-86
2021/07/11 02:07:13;;;;;;;10.73;9.63;;;;;;;17.23;100.00;98899.41;10541813;28;20193;-86
2021/07/11 02:12:34;;;;;;;11.40;10.07;;;;;;;17.16;100.00;98899.63;10541687;28;20288;-86
2021/07/11 02:17:53;;;;;;;10.73;9.60;;;;;;;17.09;100.00;98913.78;10526815;28;20865;-87
2021/07/11 02:23:13;;;;;;;10.17;9.37;;;;;;;17.09;100.00;98912.97;10525651;28;20166;-87
2021/07/11 02:28:34;;;;;;;12.80;9.80;;;;;;;16.95;100.00;98917.00;10542306;28;20174;-87
2021/07/11 02:33:54;;;;;;;14.03;10.63;;;;;;;16.92;100.00;98917.91;10525588;28;20230;-88
2021/07/11 02:39:16;;;;;;;13.57;12.37;;;;;;;16.87;100.00;98923.22;10541401;28;20177;-87
2021/07/11 02:44:37;;;;;;;12.00;10.47;;;;;;;16.87;100.00;98926.00;10541493;28;20174;-86
2021/07/11 02:50:00;;;;;;;12.30;11.10;;;;;;;16.86;100.00;98932.78;10539946;28;20280;-86
2021/07/11 02:55:26;;;;;;;11.17;10.07;;;;;;;16.96;100.00;98937.22;10541345;28;20628;-87
2021/07/11 03:00:47;;;;;;;12.00;10.77;;;;;;;16.93;100.00;98936.13;10540808;28;20174;-86
2021/07/11 03:06:07;;;;;;;11.57;10.43;;;;;;;16.86;100.00;98939.13;10539493;28;20531;-86
2021/07/11 03:11:27;;;;;;;13.60;11.80;;;;;;;16.92;100.00;98944.91;10540246;28;20575;-87
2021/07/11 03:16:51;;;;;;;12.03;10.87;;;;;;;16.88;100.00;98953.34;10524674;28;20198;-87
2021/07/11 03:22:10;;;;;;;12.97;11.70;;;;;;;17.00;100.00;98954.59;10523572;28;20178;-87
2021/07/11 03:27:30;;;;;;;11.73;10.63;;;;;;;17.00;100.00;98951.81;10540145;28;20628;-87
2021/07/11 03:33:01;;;;;;;11.00;10.03;;;;;;;16.91;100.00;98954.47;10539411;28;20213;-86
2021/07/11 03:38:23;;;;;;;13.20;11.10;;;;;;;16.81;100.00;98956.34;10522286;28;20218;-86
2021/07/11 03:43:49;;;;;;;13.40;11.30;;;;;;;16.78;100.00;98965.56;10524290;28;20177;-85
2021/07/11 03:49:12;;;;;;;11.70;10.67;;;;;;;16.92;100.00;98965.13;10538548;28;20191;-85
2021/07/11 03:54:37;;;;;;;11.83;10.87;;;;;;;17.01;100.00;98967.22;10523099;28;20659;-86
2021/07/11 03:59:58;;;;;;;16.23;12.10;;;;;;;16.87;100.00;98965.69;10523835;28;20174;-86
2021/07/11 04:05:20;;;;;;;11.80;10.60;;;;;;;16.98;100.00;98971.69;10537628;28;20182;-87
2021/07/11 04:10:40;;;;;;;13.07;11.73;;;;;;;17.07;100.00;98980.16;10538917;28;20193;-86
2021/07/11 04:16:03;;;;;;;11.80;10.73;;;;;;;17.13;100.00;98980.38;10538318;28;20198;-86
2021/07/11 04:21:26;;;;;;;12.50;11.40;;;;;;;17.07;100.00;98988.47;10522187;28;20193;-86
2021/07/11 04:26:46;;;;;;;13.90;12.67;;;;;;;17.08;100.00;98986.50;10523236;28;20203;-86
2021/07/11 04:32:08;;;;;;;14.10;11.37;;;;;;;17.25;100.00;98988.72;10538380;28;20213;-85
2021/07/11 04:37:27;;;;;;;14.80;11.00;;;;;;;17.32;100.00;98994.06;10523003;28;20679;-84
2021/07/11 04:42:46;;;;;;;12.37;11.17;;;;;;;17.33;100.00;98992.84;10538175;28;20186;-84
2021/07/11 04:48:05;;;;;;;13.73;12.43;;;;;;;17.25;100.00;98994.28;10522839;28;20535;-85
2021/07/11 04:53:24;;;;;;;13.67;12.47;;;;;;;17.18;100.00;98994.50;10519614;28;20612;-84
2021/07/11 04:58:43;;;;;;;13.07;11.80;;;;;;;17.39;100.00;99007.75;10533496;28;20174;-83
2021/07/11 05:04:03;;;;;;;12.90;11.70;;;;;;;17.34;100.00;99016.66;10517732;28;20213;-82
2021/07/11 05:09:22;;;;;;;10.20;9.27;;;;;;;17.13;100.00;99011.72;10538675;28;20174;-82
2021/07/11 05:14:41;;;;;;;9.60;8.90;;;;;;;17.28;100.00;99020.44;10539416;28;20194;-83
2021/07/11 05:20:00;;;;;;;9.23;8.53;;;;;;;17.43;100.00;99030.66;10538687;28;20280;-83
2021/07/11 05:25:20;;;;;;;10.63;9.50;;;;;;;17.53;100.00;99026.75;10540321;28;20182;-84
2021/07/11 05:30:39;;;;;;;9.77;8.97;;;;;;;17.64;100.00;99029.97;10539977;28;20561;-85
2021/07/11 05:35:58;;;;;;;9.37;8.67;;;;;;;17.68;100.00;99027.88;10538220;28;20213;-84
2021/07/11 05:41:17;;;;;;;9.33;8.63;;;;;;;17.68;100.00;99031.41;10526664;28;20212;-85
2021/07/11 05:46:36;;;;;;;8.80;8.20;;;;;;;17.67;100.00;99029.09;10527747;28;20189;-84
2021/07/11 05:51:55;;;;;;;9.77;8.80;;;;;;;17.61;100.00;99028.06;10526840;28;20668;-85
2021/07/11 05:57:14;;;;;;;8.90;8.20;;;;;;;17.58;100.00;99036.53;10543369;28;20691;-85
2021/07/11 06:02:33;;;;;;;8.10;7.50;;;;;;;17.65;100.00;99029.50;10527778;28;20178;-85
2021/07/11 06:07:51;;;;;;;7.40;6.73;;;;;;;17.65;100.00;99029.50;10541477;28;20238;-85
2021/07/11 06:13:10;;;;;;;7.20;6.70;;;;;;;17.55;100.00;99041.00;10540582;28;20210;-84
2021/07/11 06:18:30;;;;;;;8.87;8.17;;;;;;;17.47;100.00;99044.47;10526817;28;20198;-83
2021/07/11 06:23:48;;;;;;;9.67;8.87;;;;;;;17.30;100.00;99043.78;10541124;28;20170;-83
2021/07/11 06:29:07;;;;;;;8.93;8.03;;;;;;;17.25;100.00;99047.09;10526444;28;20177;-83
2021/07/11 06:34:26;;;;;;;8.73;8.03;;;;;;;17.22;100.00;99047.97;10524414;28;20696;-83
2021/07/11 06:39:46;;;;;;;9.73;8.07;;;;;;;17.15;100.00;99053.75;10541306;28;20183;-83
2021/07/11 06:45:06;;;;;;;8.70;8.00;;;;;;;17.20;100.00;99061.56;10525602;28;20190;-84
2021/07/11 06:50:25;;;;;;;8.67;7.97;;;;;;;17.18;100.00;99071.53;10523880;28;20185;-85
2021/07/11 06:55:44;;;;;;;8.67;7.97;;;;;;;17.27;100.00;99072.47;10525727;28;20174;-84
2021/07/11 07:01:03;;;;;;;6.80;6.30;;;;;;;17.27;100.00;99072.47;10540487;28;20182;-85
2021/07/11 07:06:22;;;;;;;7.07;5.87;;;;;;;17.17;100.00;99076.34;10539622;28;20185;-82
2021/07/11 07:11:42;;;;;;;5.50;5.10;;;;;;;17.13;100.00;99080.44;10524655;28;20285;-87
2021/07/11 07:17:01;;;;;;;4.80;4.50;;;;;;;17.19;100.00;99087.00;10524375;28;20194;-83
2021/07/11 07:22:20;;;;;;;5.27;4.97;;;;;;;17.27;100.00;99091.13;10523810;28;20182;-86
2021/07/11 07:27:40;;;;;;;5.43;5.03;;;;;;;17.24;100.00;99090.03;10524931;28;20688;-84
2021/07/11 07:32:58;;;;;;;4.90;4.60;;;;;;;17.26;100.00;99097.91;10538892;28;20274;-86
2021/07/11 07:38:17;;;;;;;5.13;4.83;;;;;;;17.15;100.00;99100.25;10538217;28;20217;-83
2021/07/11 07:43:36;;;;;;;6.90;6.43;;;;;;;17.21;100.00;99101.25;10524371;28;20178;-85
2021/07/11 07:48:55;;;;;;;10.67;9.77;;;;;;;17.30;100.00;99093.06;10514997;28;20564;-83
2021/07/11 07:54:23;;;;;;;5.57;5.07;;;;;;;17.38;100.00;99095.19;10481614;28;20210;-86
2021/07/11 07:59:42;;;;;;;6.83;6.13;;;;;;;17.52;100.00;99105.88;10482260;28;20265;-86
2021/07/11 08:05:01;;;;;;;7.00;6.30;;;;;;;17.65;100.00;99101.09;10505075;28;20617;-85
2021/07/11 08:10:20;;;;;;;8.93;6.73;;;;;;;17.84;100.00;99100.09;10523433;28;20539;-83
2021/07/11 08:15:40;;;;;;;5.40;5.00;;;;;;;18.08;100.00;99104.06;10523118;28;20194;-84
2021/07/11 08:20:59;;;;;;;6.23;5.80;;;;;;;18.17;100.00;99110.47;10537762;28;20162;-83
2021/07/11 08:26:18;;;;;;;6.50;6.07;;;;;;;18.11;100.00;99103.94;10523378;28;20174;-84
2021/07/11 08:31:37;;;;;;;6.20;5.70;;;;;;;18.19;100.00;99110.03;10522814;28;20727;-86
2021/07/11 08:36:59;;;;;;;5.73;5.33;;;;;;;18.11;100.00;99111.50;10536080;28;20300;-84
2021/07/11 08:42:20;;;;;;;4.83;4.53;;;;;;;18.24;100.00;99117.84;10527121;28;20186;-84
2021/07/11 08:47:40;;;;;;;5.53;5.13;;;;;;;18.20;100.00;99126.31;10545836;28;20170;-84
2021/07/11 08:53:00;;;;;;;6.70;5.60;;;;;;;18.30;100.00;99116.81;10527486;28;20214;-84
2021/07/11 08:58:19;;;;;;;5.00;4.60;;;;;;;18.34;100.00;99122.25;10530452;28;20178;-84
2021/07/11 09:03:38;;;;;;;4.80;4.50;;;;;;;18.10;100.00;99121.84;10543786;28;20636;-84
2021/07/11 09:08:57;;;;;;;4.83;4.43;;;;;;;18.23;100.00;99127.44;10543293;28;20170;-84
2021/07/11 09:14:25;;;;;;;5.10;4.40;;;;;;;18.29;100.00;99139.56;10528397;28;20205;-85
2021/07/11 09:19:50;;;;;;;5.43;5.13;;;;;;;18.33;100.00;99148.59;10543222;28;20186;-85
2021/07/11 09:25:12;;;;;;;4.97;4.57;;;;;;;18.34;100.00;99148.13;10504630;28;20201;-84
2021/07/11 09:30:31;;;;;;;5.30;4.00;;;;;;;18.50;100.00;99150.75;10543999;28;20170;-84
2021/07/11 09:35:51;;;;;;;4.33;4.03;;;;;;;18.68;100.00;99160.06;10542679;28;20254;-86
2021/07/11 09:41:20;;;;;;;3.67;3.47;;;;;;;18.50;100.00;99164.69;10542774;28;20185;-85
2021/07/11 09:46:39;;;;;;;4.40;3.70;;;;;;;18.67;100.00;99158.50;10542736;28;20186;-85
2021/07/11 09:52:03;;;;;;;4.30;3.90;;;;;;;18.54;100.00;99166.13;10539923;28;20209;-84
2021/07/11 09:57:34;;;;;;;3.80;3.60;;;;;;;18.52;100.00;99163.00;10543330;28;20194;-84
2021/07/11 10:03:01;;;;;;;3.73;3.53;;;;;;;18.68;100.00;99167.66;10541108;28;20670;-84
2021/07/11 10:08:21;;;;;;;3.70;3.50;;;;;;;18.90;100.00;99165.66;10529325;28;20183;-84
2021/07/11 10:13:40;;;;;;;4.90;4.60;;;;;;;19.36;100.00;99171.16;10516184;28;20221;-85
2021/07/11 10:19:03;;;;;;;4.73;4.50;;;;;;;19.55;100.00;99161.63;10542270;28;20178;-85
2021/07/11 10:24:23;;;;;;;5.60;4.53;;;;;;;19.24;100.00;99166.41;10518708;28;20182;-85
2021/07/11 10:29:47;;;;;;;5.17;4.90;;;;;;;19.50;100.00;99159.44;10524656;28;20265;-85
2021/07/11 10:35:27;;;;;;;4.70;4.40;;;;;;;19.90;100.00;99158.25;10519674;28;20635;-85
2021/07/11 10:40:47;;;;;;;4.13;3.93;;;;;;;20.07;100.00;99165.19;10532622;28;20578;-85
2021/07/11 10:46:06;;;;;;;4.97;4.67;;;;;;;19.82;100.00;99158.97;10526040;28;20629;-85
2021/07/11 10:51:27;;;;;;;5.43;5.13;;;;;;;19.78;100.00;99169.53;10524564;28;20194;-85
2021/07/11 10:56:46;;;;;;;8.87;8.07;;;;;;;20.08;100.00;99170.28;10525249;28;20174;-85
2021/07/11 11:02:30;;;;;;;4.60;4.20;;;;;;;19.84;100.00;99153.72;10525029;28;20182;-86
2021/07/11 11:07:50;;;;;;;4.03;3.83;;;;;;;19.58;100.00;99155.94;10521155;28;20249;-85
2021/07/11 11:13:24;;;;;;;4.37;4.07;;;;;;;19.77;100.00;99156.78;10525853;28;20202;-84
2021/07/11 11:18:48;;;;;;;4.23;3.93;;;;;;;19.73;100.00;99168.09;10511428;28;20191;-85
2021/07/11 11:24:08;;;;;;;3.70;3.50;;;;;;;20.11;100.00;99166.56;10481053;28;20166;-85
2021/07/11 11:29:27;;;;;;;4.17;3.90;;;;;;;20.33;100.00;99172.84;10482058;28;20191;-85
2021/07/11 11:34:48;;;;;;;3.30;3.10;;;;;;;20.36;100.00;99171.16;10509538;28;20233;-85
2021/07/11 11:40:09;;;;;;;3.70;3.50;;;;;;;20.82;100.00;99165.19;10527546;28;20182;-85
2021/07/11 11:45:32;;;;;;;3.70;3.40;;;;;;;20.99;100.00;99158.03;10482041;28;20214;-85
2021/07/11 11:50:52;;;;;;;3.57;3.37;;;;;;;21.20;100.00;99157.06;10480649;28;20252;-84
2021/07/11 11:56:15;;;;;;;3.47;3.27;;;;;;;21.74;99.67;99161.31;10481901;28;20170;-84
2021/07/11 12:01:35;;;;;;;2.70;2.60;;;;;;;21.40;100.00;99160.16;10497203;28;20234;-87
2021/07/11 12:06:56;;;;;;;2.80;2.60;;;;;;;21.63;99.77;99151.13;10483130;28;20242;-85
2021/07/11 12:12:17;;;;;;;3.07;2.77;;;;;;;21.50;100.00;99158.88;10513885;28;20213;-85
2021/07/11 12:17:38;;;;;;;2.90;2.70;;;;;;;22.52;97.79;99150.69;10526185;28;20178;-86
2021/07/11 12:22:57;;;;;;;2.67;2.33;;;;;;;22.52;91.04;99168.28;10529606;28;20265;-84
2021/07/11 12:28:17;;;;;;;2.87;2.67;;;;;;;21.88;91.84;99165.47;10542411;28;20663;-82
2021/07/11 12:33:37;;;;;;;2.50;2.40;;;;;;;21.98;85.10;99164.97;10545250;28;20289;-83
2021/07/11 12:38:58;;;;;;;3.23;2.80;;;;;;;22.08;84.82;99155.28;10529486;28;20182;-83
2021/07/11 12:44:19;;;;;;;2.73;2.53;;;;;;;21.48;96.12;99164.19;10546046;28;20653;-84
2021/07/11 12:49:56;;;;;;;2.90;2.70;;;;;;;22.01;96.41;99147.22;10528388;28;20229;-83
2021/07/11 12:55:16;;;;;;;2.87;2.67;;;;;;;21.88;92.49;99146.66;10528317;28;20206;-83
2021/07/11 13:00:35;;;;;;;3.03;2.83;;;;;;;21.68;88.87;99154.81;10529922;28;20658;-83
2021/07/11 13:05:59;;;;;;;2.50;2.40;;;;;;;21.55;93.72;99158.28;10534842;28;20209;-84
2021/07/11 13:11:19;;;;;;;4.30;3.93;;;;;;;20.87;100.00;99158.97;10512372;28;20684;-83
2021/07/11 13:16:38;;;;;;;4.10;3.90;;;;;;;21.28;100.00;99155.50;10528038;28;20201;-83
2021/07/11 13:21:56;;;;;;;4.40;4.20;;;;;;;21.23;100.00;99162.50;10543320;28;20178;-84
2021/07/11 13:27:17;;;;;;;4.33;3.93;;;;;;;21.30;98.15;99161.44;10543061;28;20186;-82
2021/07/11 13:32:36;;;;;;;5.00;4.60;;;;;;;21.86;98.40;99156.78;10528343;28;20205;-83
2021/07/11 13:37:56;;;;;;;4.80;4.60;;;;;;;21.83;97.49;99161.28;10526082;28;20271;-84
2021/07/11 13:43:16;;;;;;;4.50;4.30;;;;;;;22.21;91.27;99158.63;10528038;28;20194;-82
2021/07/11 13:48:35;;;;;;;4.67;4.47;;;;;;;22.24;89.30;99156.91;10528124;28;20178;-84
2021/07/11 13:53:54;;;;;;;4.70;4.50;;;;;;;22.00;94.75;99158.91;10526017;28;20213;-83
2021/07/11 13:59:13;;;;;;;4.97;4.67;;;;;;;21.73;92.45;99148.56;10542986;28;20186;-83
2021/07/11 14:04:32;;;;;;;4.70;4.30;;;;;;;22.47;84.94;99148.53;10541605;28;20643;-83
2021/07/11 14:09:51;;;;;;;4.17;3.97;;;;;;;23.55;80.99;99154.00;10513114;28;20649;-83
2021/07/11 14:15:10;;;;;;;4.50;4.30;;;;;;;24.21;76.18;99139.03;10500142;28;20234;-84
2021/07/11 14:20:29;;;;;;;3.90;3.70;;;;;;;24.76;74.69;99136.97;10498459;28;20171;-83
2021/07/11 14:25:48;;;;;;;4.93;4.63;;;;;;;23.95;76.18;99143.75;10491381;28;20640;-84
2021/07/11 14:31:07;;;;;;;4.53;4.33;;;;;;;24.21;76.74;99131.34;10523904;28;20285;-83
2021/07/11 14:36:26;;;;;;;5.07;4.77;;;;;;;24.13;77.25;99128.66;10505197;28;20230;-83
2021/07/11 14:41:46;;;;;;;4.50;4.10;;;;;;;25.59;70.10;99123.31;10500117;28;20182;-83
2021/07/11 14:47:06;;;;;;;4.73;4.40;;;;;;;24.95;71.70;99112.91;10511979;28;20186;-83
2021/07/11 14:52:25;;;;;;;4.63;4.43;;;;;;;24.73;71.23;99107.78;10538028;28;20657;-82
2021/07/11 14:57:45;;;;;;;4.17;3.87;;;;;;;24.35;68.21;99108.03;10525417;28;20218;-84
2021/07/11 15:03:04;;;;;;;4.30;4.00;;;;;;;24.49;65.52;99106.44;10524865;28;20185;-84
2021/07/11 15:08:25;;;;;;;4.73;4.33;;;;;;;24.69;67.42;99098.00;10517883;28;20178;-84
2021/07/11 15:13:45;;;;;;;4.20;3.93;;;;;;;24.44;68.23;99091.03;10522731;28;20213;-84
2021/07/11 15:19:06;;;;;;;4.10;3.90;;;;;;;24.51;69.16;99085.03;10483041;28;20194;-84
2021/07/11 15:24:25;;;;;;;4.57;4.17;;;;;;;24.46;69.32;99076.50;10499344;28;20186;-84
2021/07/11 15:29:44;;;;;;;3.80;3.47;;;;;;;24.16;67.05;99089.09;10536857;28;20210;-84
2021/07/11 15:35:03;;;;;;;4.70;4.40;;;;;;;23.39;77.55;99095.50;10513465;28;20277;-83
2021/07/11 15:40:23;;;;;;;4.83;3.90;;;;;;;22.83;82.38;99086.56;10520042;28;20193;-84
2021/07/11 15:45:43;;;;;;;4.40;4.20;;;;;;;22.13;87.38;99078.94;10523938;28;20186;-80
2021/07/11 15:51:02;;;;;;;4.60;4.30;;;;;;;21.97;94.04;99087.00;10536521;28;20190;-80
2021/07/11 15:56:22;;;;;;;10.63;5.00;;;;;;;21.63;100.00;99079.06;10538014;28;20663;-80
2021/07/11 16:01:41;;;;;;;5.63;5.23;;;;;;;21.21;100.00;99083.84;10522812;28;20639;-80
2021/07/11 16:07:01;;;;;;;9.70;5.50;;;;;;;21.05;100.00;99066.66;10536339;28;20182;-81
2021/07/11 16:12:20;;;;;;;4.60;4.30;;;;;;;20.93;100.00;99075.97;10506479;28;20217;-80
2021/07/11 16:17:40;;;;;;;4.73;4.17;;;;;;;20.56;100.00;99071.66;10538316;28;20194;-79
2021/07/11 16:22:59;;;;;;;3.80;3.50;;;;;;;20.14;100.00;99065.09;10537619;28;20596;-80
2021/07/11 16:28:17;;;;;;;3.33;3.13;;;;;;;20.51;100.00;99063.09;10483262;28;20190;-80
2021/07/11 16:33:36;;;;;;;4.53;4.07;;;;;;;21.24;100.00;99068.16;10480974;28;20234;-80
2021/07/11 16:38:55;;;;;;;4.63;4.23;;;;;;;22.14;100.00;99057.31;10480207;28;20198;-80
2021/07/11 16:44:15;;;;;;;4.00;3.50;;;;;;;22.48;100.00;99060.38;10481504;28;20179;-81
2021/07/11 16:49:34;;;;;;;3.73;3.53;;;;;;;22.49;100.00;99055.56;10479962;28;20194;-81
2021/07/11 16:54:52;;;;;;;6.03;4.33;;;;;;;22.37;100.00;99057.34;10489176;28;20214;-81
2021/07/11 17:00:15;;;;;;;5.23;4.80;;;;;;;22.54;100.00;99056.44;10522234;28;20190;-81
2021/07/11 17:05:34;;;;;;;4.97;4.77;;;;;;;22.49;100.00;99058.34;10529412;28;20190;-81
2021/07/11 17:10:53;;;;;;;4.93;4.13;;;;;;;22.15;100.00;99056.84;10531492;28;20190;-83
2021/07/11 17:16:12;;;;;;;5.33;5.03;;;;;;;21.99;100.00;99059.28;10529601;28;20186;-81
2021/07/11 17:21:32;;;;;;;4.80;4.60;;;;;;;22.34;100.00;99061.09;10562105;28;20193;-81
2021/07/11 17:26:51;;;;;;;4.20;3.93;;;;;;;23.65;100.00;99057.94;10548426;28;20178;-81
2021/07/11 17:32:10;;;;;;;4.70;4.23;;;;;;;24.09;94.99;99063.44;10541138;28;20214;-80
2021/07/11 17:37:29;;;;;;;4.77;4.37;;;;;;;23.57;97.92;99058.81;10526837;28;20213;-81
2021/07/11 17:42:48;;;;;;;4.77;4.43;;;;;;;23.79;93.02;99059.97;10544283;28;20182;-80
2021/07/11 17:48:07;;;;;;;4.63;4.23;;;;;;;23.14;99.76;99073.63;10544108;28;20174;-81
2021/07/11 17:53:26;;;;;;;4.83;4.20;;;;;;;22.44;100.00;99062.59;10484946;28;20211;-80
2021/07/11 17:58:45;;;;;;;4.80;4.40;;;;;;;22.08;100.00;99064.84;10501828;28;20171;-81
2021/07/11 18:04:04;;;;;;;5.50;5.10;;;;;;;21.80;100.00;99063.44;10501510;28;20178;-80
2021/07/11 18:09:23;;;;;;;4.67;4.37;;;;;;;21.39;100.00;99055.06;10501377;28;20171;-80
2021/07/11 18:14:42;;;;;;;17.13;5.63;;;;;;;21.03;100.00;99055.13;10500002;28;20234;-80
2021/07/11 18:20:01;;;;;;;5.03;4.63;;;;;;;20.71;100.00;99069.78;10515303;28;20534;-80
2021/07/11 18:25:22;;;;;;;5.37;5.07;;;;;;;20.49;100.00;99060.78;10542568;28;20526;-80
2021/07/11 18:30:42;;;;;;;5.60;5.20;;;;;;;20.40;100.00;99057.97;10526717;28;20636;-80
2021/07/11 18:36:01;;;;;;;5.23;4.93;;;;;;;20.39;100.00;99070.41;10483713;28;20222;-79
2021/07/11 18:41:20;;;;;;;5.57;5.27;;;;;;;20.29;100.00;99066.03;10504197;28;20252;-80
2021/07/11 18:46:39;;;;;;;5.87;5.47;;;;;;;20.16;100.00;99059.03;10541801;28;20174;-80
2021/07/11 18:51:58;;;;;;;5.10;4.80;;;;;;;19.97;100.00;99065.03;10539845;28;20668;-79
2021/07/11 18:57:17;;;;;;;5.40;4.93;;;;;;;19.88;100.00;99059.41;10540660;28;20202;-79
2021/07/11 19:02:40;;;;;;;9.83;5.90;;;;;;;19.68;100.00;99043.06;10524695;28;20185;-80
2021/07/11 19:07:59;;;;;;;6.10;5.60;;;;;;;19.52;100.00;99050.94;10540819;28;20563;-80
2021/07/11 19:13:18;;;;;;;7.90;6.30;;;;;;;19.56;100.00;99057.13;10543231;28;20205;-80
2021/07/11 19:18:37;;;;;;;6.60;6.13;;;;;;;19.16;100.00;99050.75;10543551;28;20231;-80
2021/07/11 19:23:56;;;;;;;7.60;6.63;;;;;;;19.05;100.00;99050.38;10524509;28;20261;-80
2021/07/11 19:29:15;;;;;;;8.27;6.30;;;;;;;18.85;100.00;99051.97;10541787;28;20643;-80
2021/07/11 19:34:38;;;;;;;9.47;6.90;;;;;;;18.78;100.00;99063.38;10539987;28;20225;-80
2021/07/11 19:39:57;;;;;;;7.53;7.00;;;;;;;18.61;100.00;99071.13;10541494;28;20174;-79
2021/07/11 19:45:16;;;;;;;9.30;5.80;;;;;;;18.40;100.00;99070.34;10531890;28;20599;-79
2021/07/11 19:50:37;;;;;;;7.07;6.47;;;;;;;18.29;100.00;99070.72;10546206;28;20620;-80
2021/07/11 19:55:57;;;;;;;6.63;6.23;;;;;;;18.12;100.00;99071.28;10544845;28;20190;-80
2021/07/11 20:01:16;;;;;;;6.50;6.10;;;;;;;18.02;100.00;99075.19;10554439;28;20194;-79
2021/07/11 20:06:35;;;;;;;6.70;6.20;;;;;;;18.01;100.00;99066.09;10543747;28;20169;-80
2021/07/11 20:11:54;;;;;;;8.27;7.50;;;;;;;17.94;100.00;99071.09;10565598;28;20205;-80
2021/07/11 20:17:14;;;;;;;8.30;7.70;;;;;;;17.82;100.00;99075.47;10531203;28;20182;-80
2021/07/11 20:22:33;;;;;;;7.97;7.27;;;;;;;17.58;100.00;99071.47;10537747;28;20170;-80
2021/07/11 20:27:53;;;;;;;7.20;6.70;;;;;;;17.46;100.00;99077.03;10526656;28;20183;-80
2021/07/11 20:33:12;;;;;;;7.70;7.00;;;;;;;17.45;100.00;99067.13;10512725;28;20206;-80
2021/07/11 20:38:31;;;;;;;6.90;5.53;;;;;;;17.30;100.00;99066.03;10542232;28;20186;-80
2021/07/11 20:43:51;;;;;;;5.90;5.30;;;;;;;17.19;100.00;99057.22;10548085;28;20181;-80
2021/07/11 20:49:10;;;;;;;7.00;5.70;;;;;;;17.10;100.00;99070.19;10547031;28;20239;-80
2021/07/11 20:54:29;;;;;;;9.80;6.70;;;;;;;17.14;100.00;99060.53;10546229;28;20209;-81
2021/07/11 20:59:49;;;;;;;6.53;5.70;;;;;;;16.89;100.00;99065.28;10529880;28;20182;-80
2021/07/11 21:05:08;;;;;;;10.53;6.37;;;;;;;16.77;100.00;99065.25;10544527;28;20170;-80
2021/07/11 21:10:27;;;;;;;12.90;6.73;;;;;;;16.81;100.00;99053.59;10530423;28;20219;-80
2021/07/11 21:15:46;;;;;;;9.23;6.60;;;;;;;16.78;100.00;99048.94;10544869;28;20671;-80
2021/07/11 21:21:05;;;;;;;8.60;6.50;;;;;;;16.58;100.00;99055.06;10544232;28;20178;-81
2021/07/11 21:26:24;;;;;;;6.40;5.87;;;;;;;16.44;100.00;99058.25;10546331;28;20174;-81
2021/07/11 21:31:43;;;;;;;7.67;6.77;;;;;;;16.38;100.00;99065.56;10544573;28;20301;-81
2021/07/11 21:37:02;;;;;;;19.90;6.90;;;;;;;16.37;100.00;99064.78;10527361;28;20247;-81
2021/07/11 21:42:21;;;;;;;52.70;9.17;;;;;;;16.38;100.00;99065.56;10552413;28;20170;-80
2021/07/11 21:47:40;;;;;;;10.13;7.10;;;;;;;16.32;100.00;99058.97;10546044;28;20534;-80
2021/07/11 21:52:59;;;;;;;8.90;8.00;;;;;;;16.35;100.00;99058.91;10545167;28;20218;-80
2021/07/11 21:58:18;;;;;;;9.43;6.47;;;;;;;16.36;100.00;99051.34;10544094;28;20181;-80
2021/07/11 22:03:37;;;;;;;12.50;7.00;;;;;;;16.37;100.00;99050.13;10543361;28;20636;-80
2021/07/11 22:08:56;;;;;;;8.07;7.37;;;;;;;16.35;100.00;99049.78;10548579;28;20175;-80
2021/07/11 22:14:15;;;;;;;11.97;7.10;;;;;;;16.36;100.00;99048.56;10528056;28;20194;-81
2021/07/11 22:19:34;;;;;;;8.23;6.90;;;;;;;16.36;100.00;99048.56;10526590;28;20186;-80
2021/07/11 22:24:53;;;;;;;7.60;7.00;;;;;;;16.33;100.00;99041.09;10542693;28;20181;-81
2021/07/11 22:30:14;;;;;;;7.90;7.10;;;;;;;16.45;100.00;99021.69;10549925;28;20177;-83
2021/07/11 22:35:33;;;;;;;11.20;8.13;;;;;;;16.47;100.00;99026.84;10540182;28;20652;-82
2021/07/11 22:40:54;;;;;;;10.83;7.13;;;;;;;16.30;100.00;99015.00;10542078;28;20178;-83
2021/07/11 22:46:13;;;;;;;8.00;7.27;;;;;;;16.34;100.00;99012.13;10541773;28;20265;-83
2021/07/11 22:51:32;;;;;;;8.90;7.53;;;;;;;16.17;100.00;99018.91;10540321;28;20612;-82
2021/07/11 22:56:51;;;;;;;7.00;6.33;;;;;;;16.08;100.00;99024.28;10541209;28;20215;-82
2021/07/11 23:02:10;;;;;;;12.13;7.30;;;;;;;16.00;100.00;99025.69;10541089;28;20181;-82
2021/07/11 23:07:29;;;;;;;12.43;8.60;;;;;;;15.88;100.00;99029.19;10539818;28;20215;-83
2021/07/11 23:12:49;;;;;;;8.83;6.73;;;;;;;15.80;100.00;99018.72;10540534;28;20561;-83
2021/07/11 23:18:08;;;;;;;8.23;6.03;;;;;;;15.72;100.00;99012.59;10525259;28;20174;-82
2021/07/11 23:23:26;;;;;;;8.50;6.20;;;;;;;15.71;100.00;99010.25;10539117;28;20174;-82
2021/07/11 23:28:45;;;;;;;9.43;6.67;;;;;;;15.67;100.00;99013.09;10524014;28;20186;-83
2021/07/11 23:34:05;;;;;;;14.33;7.93;;;;;;;15.63;100.00;99015.19;10538969;28;20734;-82
2021/07/11 23:39:24;;;;;;;7.07;6.37;;;;;;;15.43;100.00;99017.25;10539677;28;20174;-82
2021/07/11 23:44:43;;;;;;;7.40;6.70;;;;;;;15.36;100.00;99011.88;10539586;28;20210;-83
2021/07/11 23:50:06;;;;;;;7.90;5.97;;;;;;;15.25;100.00;99010.56;10538495;28;20680;-83
2021/07/11 23:55:26;;;;;;;10.27;5.57;;;;;;;15.19;100.00;99013.03;10538624;28;20304;-83
